Time;durP1;ratioP1;P1;durP2;ratioP2;P2;SDS_P1;SDS_P2;PMS_P1;PMS_P2;Temp;Humidity;BMP_temperature;BMP_pressure;BME280_temperature;BME280_humidity;BME280_pressure;Samples;Min_cycle;Max_cycle;Signal;HPM_P1;HPM_P2
2022/08/04 00:00:24;;;;;;;;;;;;;;;26.43;37.63;100469.62;5381129;32;35620;-81
2022/08/04 00:03:27;;;;;;;;;;;;;;;26.24;38.62;100483.28;5405603;32;38151;-72
2022/08/04 00:06:29;;;;;;;;;;;;;;;26.31;38.37;100483.50;5383743;32;35415;-73
2022/08/04 00:09:34;;;;;;;;;;;;;;;25.99;38.98;100484.13;5412087;32;35882;-73
2022/08/04 00:12:36;;;;;;;;;;;;;;;25.32;40.90;100484.53;5384806;32;44871;-81
2022/08/04 00:15:40;;;;;;;;;;;;;;;26.77;37.93;100482.25;5397419;32;35173;-71
2022/08/04 00:18:47;;;;;;;;;;;;;;;25.72;40.05;100479.69;5416530;32;34996;-81
2022/08/04 00:21:55;;;;;;;;;;;;;;;25.58;40.60;100476.53;5380671;32;36947;-72
2022/08/04 00:24:59;;;;;;;;;;;;;;;25.22;41.67;100466.78;5403774;32;35574;-81
2022/08/04 00:28:01;;;;;;;;;;;;;;;25.93;39.84;100477.53;5383196;32;34777;-73
2022/08/04 00:31:03;;;;;;;;;;;;;;;25.27;41.46;100480.63;5404608;32;36004;-78
2022/08/04 00:34:12;;;;;;;;;;;;;;;25.57;40.32;100476.72;5400139;32;44698;-82
2022/08/04 00:37:14;;;;;;;;;;;;;;;25.24;41.00;100481.75;5398693;32;35360;-72
2022/08/04 00:40:22;;;;;;;;;;;;;;;25.05;40.72;100492.62;5411680;32;35450;-73
2022/08/04 00:43:32;;;;;;;;;;;;;;;25.23;39.87;100496.19;5404015;32;35460;-71
2022/08/04 00:46:38;;;;;;;;;;;;;;;24.78;40.68;100496.12;5399028;32;35998;-80
2022/08/04 00:49:49;;;;;;;;;;;;;;;25.73;38.13;100495.72;5398189;32;44382;-72
2022/08/04 00:52:51;;;;;;;;;;;;;;;25.45;38.21;100499.47;5366017;32;35949;-71
2022/08/04 00:56:21;;;;;;;;;;;;;;;24.94;39.31;100500.88;5412466;32;35150;-79
2022/08/04 00:59:33;;;;;;;;;;;;;;;25.09;39.50;100499.41;5382583;32;35205;-72
2022/08/04 01:02:37;;;;;;;;;;;;;;;24.42;41.62;100492.50;5397803;32;35289;-71
2022/08/04 01:05:52;;;;;;;;;;;;;;;25.41;38.55;100498.91;5395944;32;35192;-80
2022/08/04 01:09:23;;;;;;;;;;;;;;;25.32;39.04;100505.22;5389567;32;35662;-80
2022/08/04 01:12:45;;;;;;;;;;;;;;;25.40;39.32;100502.59;5390339;32;34416;-71
2022/08/04 01:15:57;;;;;;;;;;;;;;;24.85;41.27;100506.13;5391971;32;35847;-71
2022/08/04 01:19:02;;;;;;;;;;;;;;;25.49;38.84;100498.13;5397333;32;35517;-80
2022/08/04 01:22:24;;;;;;;;;;;;;;;24.82;40.75;100509.16;5399878;32;36055;-71
2022/08/04 01:25:45;;;;;;;;;;;;;;;25.15;39.85;100503.34;5393364;32;35168;-74
2022/08/04 01:29:05;;;;;;;;;;;;;;;25.02;40.34;100490.22;5407093;32;35674;-72
2022/08/04 01:32:19;;;;;;;;;;;;;;;25.16;40.75;100500.50;5389307;32;45496;-80
2022/08/04 01:35:32;;;;;;;;;;;;;;;24.81;41.66;100499.38;5390732;32;35346;-71
2022/08/04 01:38:48;;;;;;;;;;;;;;;25.07;40.98;100514.84;5414464;32;35098;-81
2022/08/04 01:41:54;;;;;;;;;;;;;;;25.36;39.76;100502.03;5388968;32;35795;-73
2022/08/04 01:45:05;;;;;;;;;;;;;;;25.84;38.62;100490.09;5413026;32;37061;-71
2022/08/04 01:48:07;;;;;;;;;;;;;;;25.65;39.42;100504.53;5388698;32;45239;-72
2022/08/04 01:51:10;;;;;;;;;;;;;;;25.25;40.42;100502.28;5380506;32;35256;-80
2022/08/04 01:54:12;;;;;;;;;;;;;;;25.02;41.16;100504.50;5404660;32;34959;-72
2022/08/04 01:57:14;;;;;;;;;;;;;;;25.84;39.01;100490.09;5399010;32;35859;-72
2022/08/04 02:00:36;;;;;;;;;;;;;;;24.88;42.51;100498.78;5386051;32;45394;-80
2022/08/04 02:03:40;;;;;;;;;;;;;;;24.95;41.89;100499.88;5389605;32;35589;-72
2022/08/04 02:07:17;;;;;;;;;;;;;;;25.91;39.42;100501.91;5386399;32;36256;-82
2022/08/04 02:10:26;;;;;;;;;;;;;;;26.33;38.60;100497.66;5412618;32;36616;-82
2022/08/04 02:14:06;;;;;;;;;;;;;;;25.79;39.76;100499.62;5395415;32;35528;-80
2022/08/04 02:17:29;;;;;;;;;;;;;;;25.27;40.79;100491.37;5311272;33;35126;-81
2022/08/04 02:20:51;;;;;;;;;;;;;;;25.43;40.26;100491.50;5325401;32;36230;-78
2022/08/04 02:23:54;;;;;;;;;;;;;;;25.00;41.52;100492.22;5385340;32;35622;-81
2022/08/04 02:26:56;;;;;;;;;;;;;;;24.88;42.43;100490.72;5415244;32;36122;-79
2022/08/04 02:29:58;;;;;;;;;;;;;;;25.85;39.65;100486.38;5399409;32;36173;-73
2022/08/04 02:33:01;;;;;;;;;;;;;;;26.47;37.90;100494.44;5395399;32;35258;-80
2022/08/04 02:36:04;;;;;;;;;;;;;;;25.73;39.44;100490.31;5404268;32;36010;-81
2022/08/04 02:39:10;;;;;;;;;;;;;;;24.81;41.73;100501.22;5398525;32;44475;-81
2022/08/04 02:42:12;;;;;;;;;;;;;;;24.76;41.64;100492.75;5400959;32;35343;-79
2022/08/04 02:45:14;;;;;;;;;;;;;;;25.57;39.55;100492.84;5395022;32;35066;-73
2022/08/04 02:48:16;;;;;;;;;;;;;;;25.72;39.84;100487.75;5416331;32;34690;-78
2022/08/04 02:51:33;;;;;;;;;;;;;;;25.33;40.54;100497.00;5376614;32;35146;-73
2022/08/04 02:54:38;;;;;;;;;;;;;;;25.55;40.22;100490.28;5393509;32;43315;-81
2022/08/04 02:57:40;;;;;;;;;;;;;;;25.27;40.64;100491.37;5416560;32;34456;-79
2022/08/04 03:00:43;;;;;;;;;;;;;;;24.91;41.97;100487.72;5382306;32;34909;-73
2022/08/04 03:03:45;;;;;;;;;;;;;;;25.24;40.81;100487.13;5405910;32;35654;-81
2022/08/04 03:06:47;;;;;;;;;;;;;;;24.87;41.44;100491.72;5385106;32;35195;-78
2022/08/04 03:09:58;;;;;;;;;;;;;;;24.96;41.38;100485.44;5409141;32;38140;-81
2022/08/04 03:13:00;;;;;;;;;;;;;;;25.25;40.81;100488.00;5388447;32;36534;-72
2022/08/04 03:16:21;;;;;;;;;;;;;;;25.44;40.43;100489.66;5392707;32;33796;-70
2022/08/04 03:19:22;;;;;;;;;;;;;;;25.13;40.93;100492.75;5409611;32;36399;-71
2022/08/04 03:22:24;;;;;;;;;;;;;;;25.33;40.62;100491.59;5385581;32;34731;-78
2022/08/04 03:25:45;;;;;;;;;;;;;;;25.01;41.51;100494.75;5407426;32;35679;-80
2022/08/04 03:29:07;;;;;;;;;;;;;;;24.87;42.03;100497.09;5396115;32;35795;-78
2022/08/04 03:32:21;;;;;;;;;;;;;;;25.27;41.10;100497.59;5385653;32;44710;-71
2022/08/04 03:35:29;;;;;;;;;;;;;;;26.10;39.39;100500.88;5405998;32;34732;-80
2022/08/04 03:38:50;;;;;;;;;;;;;;;25.58;39.89;100497.22;5388523;32;36044;-73
2022/08/04 03:42:33;;;;;;;;;;;;;;;25.86;39.67;100503.38;5391653;32;37387;-78
2022/08/04 03:45:54;;;;;;;;;;;;;;;25.56;39.42;100504.59;5321778;32;36296;-80
2022/08/04 03:49:16;;;;;;;;;;;;;;;25.56;39.83;100501.91;5391718;32;35354;-71
2022/08/04 03:56:04;;;;;;;;;;;;;;;25.83;39.24;100492.94;5412436;32;36324;-71
2022/08/04 03:59:28;;;;;;;;;;;;;;;26.18;38.31;100497.41;5383090;32;44476;-71
2022/08/04 04:02:36;;;;;;;;;;;;;;;25.72;39.59;100501.22;5404477;32;36094;-80
2022/08/04 04:05:57;;;;;;;;;;;;;;;24.40;42.67;100502.50;5397507;32;44772;-73
2022/08/04 04:09:21;;;;;;;;;;;;;;;25.85;39.32;100497.16;5391334;32;35524;-78
2022/08/04 04:12:33;;;;;;;;;;;;;;;26.01;38.93;100501.81;5407316;32;36194;-80
2022/08/04 04:15:54;;;;;;;;;;;;;;;25.42;39.82;100495.22;5397112;32;44703;-80
2022/08/04 04:19:05;;;;;;;;;;;;;;;25.56;39.88;100501.91;5405704;32;35724;-80
2022/08/04 04:22:17;;;;;;;;;;;;;;;24.78;41.57;100513.09;5395417;32;46606;-71
2022/08/04 04:25:30;;;;;;;;;;;;;;;25.12;41.16;100513.41;5393478;32;35351;-78
2022/08/04 04:28:38;;;;;;;;;;;;;;;26.09;38.91;100511.81;5417563;32;34873;-77
2022/08/04 04:31:56;;;;;;;;;;;;;;;25.63;39.63;100513.75;5398063;32;35790;-81
2022/08/04 04:35:17;;;;;;;;;;;;;;;26.13;38.88;100510.50;5401948;32;35354;-81
2022/08/04 04:38:38;;;;;;;;;;;;;;;26.45;38.05;100517.97;5397379;32;38214;-81
2022/08/04 04:41:42;;;;;;;;;;;;;;;26.18;38.57;100516.25;5384256;32;47480;-78
2022/08/04 04:44:55;;;;;;;;;;;;;;;26.34;38.06;100519.06;5412050;32;35469;-72
2022/08/04 04:48:17;;;;;;;;;;;;;;;26.78;37.15;100521.69;5383496;32;35580;-73
2022/08/04 04:51:23;;;;;;;;;;;;;;;27.58;35.74;100521.28;5373413;32;37839;-82
2022/08/04 04:54:28;;;;;;;;;;;;;;;27.44;35.56;100510.16;5410355;32;36431;-72
2022/08/04 04:57:33;;;;;;;;;;;;;;;27.66;35.07;100507.78;5400874;32;35662;-73
2022/08/04 05:00:55;;;;;;;;;;;;;;;28.41;33.77;100515.75;5397403;32;38516;-77
2022/08/04 05:03:57;;;;;;;;;;;;;;;26.69;36.44;100536.13;5391872;32;34829;-81
2022/08/04 05:07:08;;;;;;;;;;;;;;;27.32;35.70;100526.81;5386598;32;35873;-72
2022/08/04 05:10:23;;;;;;;;;;;;;;;28.04;34.45;100511.72;5412421;32;44683;-73
2022/08/04 05:13:24;;;;;;;;;;;;;;;27.49;35.04;100525.81;5386727;32;35299;-78
2022/08/04 05:16:50;;;;;;;;;;;;;;;27.11;35.58;100532.63;5398342;32;36560;-81
2022/08/04 05:19:59;;;;;;;;;;;;;;;27.62;34.87;100534.28;5397321;32;35639;-81
2022/08/04 05:23:03;;;;;;;;;;;;;;;26.45;37.37;100542.22;5383785;32;35347;-72
2022/08/04 05:26:07;;;;;;;;;;;;;;;27.86;35.29;100538.87;5404667;32;47030;-73
2022/08/04 05:29:10;;;;;;;;;;;;;;;28.86;32.98;100532.16;5380251;32;35570;-72
2022/08/04 05:32:14;;;;;;;;;;;;;;;30.00;31.48;100535.22;5397195;32;34628;-79
2022/08/04 05:35:19;;;;;;;;;;;;;;;30.89;29.70;100537.06;5369520;32;34466;-78
2022/08/04 05:38:42;;;;;;;;;;;;;;;29.71;31.76;100544.12;5395262;32;44974;-79
2022/08/04 05:41:44;;;;;;;;;;;;;;;29.18;31.62;100540.34;5386526;32;35248;-72
2022/08/04 05:44:56;;;;;;;;;;;;;;;30.35;30.01;100539.19;5393992;32;36011;-72
2022/08/04 05:47:58;;;;;;;;;;;;;;;31.37;28.34;100539.38;5401509;32;34945;-77
2022/08/04 05:51:00;;;;;;;;;;;;;;;30.51;29.67;100552.56;5367361;32;34893;-75
2022/08/04 05:54:02;;;;;;;;;;;;;;;31.28;28.44;100552.22;5400870;32;35118;-79
2022/08/04 05:57:05;;;;;;;;;;;;;;;31.98;27.47;100537.06;5394196;32;36030;-84
2022/08/04 06:00:07;;;;;;;;;;;;;;;30.17;29.67;100556.63;5376433;32;44636;-81
2022/08/04 06:03:29;;;;;;;;;;;;;;;31.80;27.62;100551.97;5402820;32;35561;-70
2022/08/04 06:06:31;;;;;;;;;;;;;;;32.98;25.94;100550.38;5387344;32;36239;-74
2022/08/04 06:09:33;;;;;;;;;;;;;;;33.47;25.43;100543.88;5401158;32;35553;-73
2022/08/04 06:12:37;;;;;;;;;;;;;;;32.44;26.52;100545.63;5395150;32;44464;-72
2022/08/04 06:15:39;;;;;;;;;;;;;;;32.69;26.25;100545.16;5397596;32;34620;-78
2022/08/04 06:18:47;;;;;;;;;;;;;;;32.73;26.24;100543.72;5396047;32;36629;-78
2022/08/04 06:22:09;;;;;;;;;;;;;;;32.24;26.80;100541.87;5390455;32;44770;-81
2022/08/04 06:25:13;;;;;;;;;;;;;;;31.19;28.70;100531.59;5408895;32;34981;-68
2022/08/04 06:28:15;;;;;;;;;;;;;;;31.06;28.34;100550.44;5391255;32;34302;-66
2022/08/04 06:35:19;;;;;;;;;;;;;;;31.89;27.43;100544.53;5381242;32;35604;-80
2022/08/04 06:38:21;;;;;;;;;;;;;;;33.11;25.03;100552.31;5369158;32;35932;-77
2022/08/04 06:41:23;;;;;;;;;;;;;;;33.28;24.91;100548.19;5399483;32;35244;-67
2022/08/04 06:44:25;;;;;;;;;;;;;;;33.83;24.10;100546.25;5391244;32;35543;-66
2022/08/04 06:47:28;;;;;;;;;;;;;;;32.97;25.34;100536.94;5395687;32;35384;-68
2022/08/04 06:50:30;;;;;;;;;;;;;;;32.88;25.14;100539.84;5380437;32;34818;-64
2022/08/04 06:53:54;;;;;;;;;;;;;;;34.30;22.84;100530.75;5380562;32;35172;-80
2022/08/04 06:56:57;;;;;;;;;;;;;;;34.52;22.75;100535.97;5404523;32;36734;-84
2022/08/04 06:59:59;;;;;;;;;;;;;;;33.92;23.83;100516.91;5394083;32;34903;-68
2022/08/04 07:03:01;;;;;;;;;;;;;;;36.22;20.85;100529.03;5405607;32;34923;-82
2022/08/04 07:06:03;;;;;;;;;;;;;;;36.48;20.08;100522.50;5391727;32;34801;-70
2022/08/04 07:09:09;;;;;;;;;;;;;;;35.44;21.32;100535.69;5394149;32;44147;-78
2022/08/04 07:12:11;;;;;;;;;;;;;;;35.58;20.44;100538.34;5401238;32;34917;-75
2022/08/04 07:15:13;;;;;;;;;;;;;;;34.88;21.60;100535.47;5398505;32;34336;-69
2022/08/04 07:18:15;;;;;;;;;;;;;;;35.23;21.05;100533.25;5404573;32;34731;-85
2022/08/04 07:21:21;;;;;;;;;;;;;;;35.00;21.50;100539.25;5387165;32;35981;-88
2022/08/04 07:24:28;;;;;;;;;;;;;;;35.80;20.70;100536.91;5398776;32;34770;-75
2022/08/04 07:27:30;;;;;;;;;;;;;;;36.61;19.53;100531.41;5399498;32;36140;-74
2022/08/04 07:30:50;;;;;;;;;;;;;;;38.23;17.72;100527.88;5386525;32;34845;-76
2022/08/04 07:33:53;;;;;;;;;;;;;;;34.61;21.69;100532.81;5407293;32;35933;-87
2022/08/04 07:37:15;;;;;;;;;;;;;;;37.01;17.94;100522.72;5395404;32;34820;-72
2022/08/04 07:40:18;;;;;;;;;;;;;;;38.45;16.39;100525.41;5397198;32;34603;-72
2022/08/04 07:43:21;;;;;;;;;;;;;;;38.11;16.58;100514.16;5395155;32;37947;-78
2022/08/04 07:46:23;;;;;;;;;;;;;;;38.26;16.73;100518.37;5391753;32;35114;-81
2022/08/04 07:49:32;;;;;;;;;;;;;;;37.25;17.97;100514.63;5404191;32;36565;-79
2022/08/04 07:52:54;;;;;;;;;;;;;;;38.78;16.49;100507.50;5376684;32;35721;-71
2022/08/04 07:56:16;;;;;;;;;;;;;;;38.36;16.79;100515.88;5404882;32;35885;-75
2022/08/04 07:59:18;;;;;;;;;;;;;;;36.55;18.46;100515.03;5400035;32;36816;-80
2022/08/04 08:02:21;;;;;;;;;;;;;;;37.17;17.88;100506.75;5392450;32;35779;-72
2022/08/04 08:05:23;;;;;;;;;;;;;;;38.39;16.76;100498.94;5402433;32;34690;-71
2022/08/04 08:08:25;;;;;;;;;;;;;;;35.92;19.41;100507.81;5397933;32;35728;-71
2022/08/04 08:11:26;;;;;;;;;;;;;;;37.50;17.98;100506.28;5411958;32;35554;-68
2022/08/04 08:14:49;;;;;;;;;;;;;;;37.24;18.20;100502.84;5388635;32;36429;-68
2022/08/04 08:17:51;;;;;;;;;;;;;;;36.54;19.12;100503.25;5390082;32;36659;-68
2022/08/04 08:21:00;;;;;;;;;;;;;;;36.89;19.06;100499.91;5396224;32;34941;-84
2022/08/04 08:24:03;;;;;;;;;;;;;;;37.29;18.31;100510.34;5387422;32;36003;-82
2022/08/04 08:27:13;;;;;;;;;;;;;;;39.36;16.00;100503.72;5406928;32;46010;-69
2022/08/04 08:30:15;;;;;;;;;;;;;;;38.14;17.42;100502.72;5390574;32;35046;-72
2022/08/04 08:33:17;;;;;;;;;;;;;;;38.56;16.51;100499.84;5398076;32;35599;-83
2022/08/04 08:36:37;;;;;;;;;;;;;;;37.45;17.87;100504.25;5397173;32;34027;-70
2022/08/04 08:39:40;;;;;;;;;;;;;;;39.68;15.61;100506.78;5383295;32;44804;-68
2022/08/04 08:42:46;;;;;;;;;;;;;;;40.37;15.13;100493.56;5401188;32;35060;-78
2022/08/04 08:46:23;;;;;;;;;;;;;;;40.53;14.88;100484.47;5391664;32;34712;-69
2022/08/04 08:49:54;;;;;;;;;;;;;;;40.46;14.80;100485.72;5377307;32;35205;-72
2022/08/04 08:53:16;;;;;;;;;;;;;;;41.45;13.76;100504.84;5395329;32;36014;-70
2022/08/04 08:56:21;;;;;;;;;;;;;;;40.95;14.20;100497.66;5397580;32;34783;-68
2022/08/04 08:59:32;;;;;;;;;;;;;;;40.80;14.14;100492.78;5408714;32;35686;-67
2022/08/04 09:02:40;;;;;;;;;;;;;;;42.55;12.85;100490.50;5393685;32;34925;-76
2022/08/04 09:05:59;;;;;;;;;;;;;;;40.91;14.06;100490.19;5393577;32;45644;-76
2022/08/04 09:09:15;;;;;;;;;;;;;;;41.84;13.53;100494.47;5405770;32;35922;-71
2022/08/04 09:12:20;;;;;;;;;;;;;;;41.95;13.28;100481.56;5389909;32;35509;-76
2022/08/04 09:15:28;;;;;;;;;;;;;;;38.67;16.26;100499.00;5403012;32;35625;-65
2022/08/04 09:18:35;;;;;;;;;;;;;;;39.85;15.10;100493.03;5391862;32;35842;-81
2022/08/04 09:21:48;;;;;;;;;;;;;;;41.43;13.95;100496.00;5391664;32;44759;-68
2022/08/04 09:24:53;;;;;;;;;;;;;;;40.45;14.75;100495.03;5404760;32;35476;-67
2022/08/04 09:27:57;;;;;;;;;;;;;;;37.36;17.74;100494.69;5388798;32;34612;-81
2022/08/04 09:31:09;;;;;;;;;;;;;;;39.52;15.76;100494.63;5405777;32;44875;-74
2022/08/04 09:34:12;;;;;;;;;;;;;;;40.73;14.89;100480.31;5393612;32;34333;-76
2022/08/04 09:37:18;;;;;;;;;;;;;;;41.74;13.68;100474.25;5398201;32;34693;-79
2022/08/04 09:40:32;;;;;;;;;;;;;;;41.44;13.81;100481.13;5403791;32;35778;-68
2022/08/04 09:43:57;;;;;;;;;;;;;;;39.24;15.90;100485.34;5397099;32;37589;-79
2022/08/04 09:47:30;;;;;;;;;;;;;;;41.55;13.73;100469.09;5408904;32;37601;-71
2022/08/04 09:50:44;;;;;;;;;;;;;;;38.98;16.21;100472.19;5394313;32;44201;-70
2022/08/04 09:53:56;;;;;;;;;;;;;;;42.32;13.04;100467.75;5380643;32;35460;-74
2022/08/04 09:57:22;;;;;;;;;;;;;;;41.44;13.77;100458.22;5391817;32;34758;-73
2022/08/04 10:00:25;;;;;;;;;;;;;;;38.53;16.58;100461.91;5373101;32;34868;-76
2022/08/04 10:03:44;;;;;;;;;;;;;;;42.56;12.91;100453.47;5390754;32;45078;-68
2022/08/04 10:07:02;;;;;;;;;;;;;;;39.18;15.55;100458.84;5407631;32;34878;-75
2022/08/04 10:10:19;;;;;;;;;;;;;;;42.72;12.60;100452.47;5388114;32;34331;-72
2022/08/04 10:13:39;;;;;;;;;;;;;;;43.28;12.37;100443.50;5394962;32;34897;-73
2022/08/04 10:16:54;;;;;;;;;;;;;;;38.48;16.43;100448.06;5395452;32;44481;-67
2022/08/04 10:20:05;;;;;;;;;;;;;;;40.69;14.74;100441.41;5388436;32;35336;-67
2022/08/04 10:23:16;;;;;;;;;;;;;;;42.76;12.83;100448.06;5407583;32;44821;-75
2022/08/04 10:26:21;;;;;;;;;;;;;;;42.41;13.01;100441.28;5397605;32;35112;-85
2022/08/04 10:29:25;;;;;;;;;;;;;;;40.85;14.30;100439.66;5418886;32;36122;-75
2022/08/04 10:32:28;;;;;;;;;;;;;;;42.58;12.72;100441.13;5394264;32;35004;-71
2022/08/04 10:35:34;;;;;;;;;;;;;;;39.32;15.65;100447.53;5382673;32;36179;-65
2022/08/04 10:38:39;;;;;;;;;;;;;;;41.44;13.53;100437.00;5403487;32;47280;-66
2022/08/04 10:41:46;;;;;;;;;;;;;;;40.98;14.02;100432.94;5395522;32;36148;-72
2022/08/04 10:44:49;;;;;;;;;;;;;;;42.84;12.59;100427.37;5404329;32;36147;-77
2022/08/04 10:48:11;;;;;;;;;;;;;;;41.55;13.68;100416.69;5393498;32;35595;-72
2022/08/04 10:51:16;;;;;;;;;;;;;;;43.10;12.35;100418.06;5370320;32;44546;-81
2022/08/04 10:54:25;;;;;;;;;;;;;;;40.15;14.93;100421.97;5400008;32;36124;-88
2022/08/04 10:57:29;;;;;;;;;;;;;;;39.31;15.84;100423.87;5399691;32;35649;-65
2022/08/04 11:00:32;;;;;;;;;;;;;;;38.37;16.96;100407.72;5404500;32;35266;-70
2022/08/04 11:03:37;;;;;;;;;;;;;;;40.51;14.73;100401.28;5390685;32;34527;-72
2022/08/04 11:06:39;;;;;;;;;;;;;;;39.66;15.66;100404.41;5404627;32;44662;-64
2022/08/04 11:09:42;;;;;;;;;;;;;;;42.85;12.79;100402.22;5391628;32;36062;-66
2022/08/04 11:12:45;;;;;;;;;;;;;;;40.81;14.58;100400.75;5390136;32;34488;-66
2022/08/04 11:15:49;;;;;;;;;;;;;;;43.41;12.71;100399.56;5397646;32;34765;-67
2022/08/04 11:19:02;;;;;;;;;;;;;;;43.15;12.57;100401.44;5390696;32;36534;-76
2022/08/04 11:22:05;;;;;;;;;;;;;;;44.47;11.46;100386.59;5410291;32;46171;-78
2022/08/04 11:25:13;;;;;;;;;;;;;;;41.08;13.91;100399.97;5393474;32;34923;-70
2022/08/04 11:28:24;;;;;;;;;;;;;;;42.66;12.88;100392.78;5409555;32;36022;-70
2022/08/04 11:31:30;;;;;;;;;;;;;;;42.31;13.04;100396.19;5405964;32;37029;-70
2022/08/04 11:34:33;;;;;;;;;;;;;;;41.66;13.42;100390.00;5387597;32;35099;-70
2022/08/04 11:37:49;;;;;;;;;;;;;;;44.07;11.46;100393.09;5410884;32;34702;-71
2022/08/04 11:40:53;;;;;;;;;;;;;;;44.66;11.17;100377.66;5396573;32;37023;-85
2022/08/04 11:44:03;;;;;;;;;;;;;;;45.07;10.84;100379.03;5409005;32;33583;-87
2022/08/04 11:47:31;;;;;;;;;;;;;;;42.98;12.22;100385.13;5403782;32;44688;-71
2022/08/04 11:50:43;;;;;;;;;;;;;;;45.52;10.40;100377.00;5386816;32;35091;-73
2022/08/04 11:53:49;;;;;;;;;;;;;;;45.07;10.93;100370.72;5397047;32;37790;-77
2022/08/04 11:56:51;;;;;;;;;;;;;;;42.08;13.04;100369.84;5388615;32;34876;-69
2022/08/04 11:59:54;;;;;;;;;;;;;;;46.29;9.70;100351.19;5400643;32;34962;-82
2022/08/04 12:03:12;;;;;;;;;;;;;;;47.23;9.15;100354.81;5405842;32;45431;-73
2022/08/04 12:06:21;;;;;;;;;;;;;;;45.17;10.46;100353.19;5396627;32;34586;-76
2022/08/04 12:09:35;;;;;;;;;;;;;;;44.67;10.77;100351.59;5406015;32;35152;-71
2022/08/04 12:12:46;;;;;;;;;;;;;;;44.26;11.14;100351.78;5393892;32;44656;-72
2022/08/04 12:15:55;;;;;;;;;;;;;;;43.12;11.35;100354.19;5410485;32;35157;-79
2022/08/04 12:18:59;;;;;;;;;;;;;;;42.84;11.89;100341.69;5400185;32;35916;-73
2022/08/04 12:22:05;;;;;;;;;;;;;;;46.34;9.24;100320.56;5390813;32;33762;-70
2022/08/04 12:25:12;;;;;;;;;;;;;;;42.41;12.33;100332.72;5403215;32;44444;-68
2022/08/04 12:28:25;;;;;;;;;;;;;;;41.10;13.39;100342.66;5392209;32;34686;-71
2022/08/04 12:31:44;;;;;;;;;;;;;;;44.21;10.90;100329.66;5407726;32;35251;-71
2022/08/04 12:34:56;;;;;;;;;;;;;;;43.88;11.48;100329.22;5396273;32;35020;-69
2022/08/04 12:38:06;;;;;;;;;;;;;;;44.93;10.66;100325.31;5390542;32;35312;-68
2022/08/04 12:41:08;;;;;;;;;;;;;;;42.68;12.39;100335.31;5407275;32;44734;-71
2022/08/04 12:44:11;;;;;;;;;;;;;;;38.94;15.72;100337.19;5395587;32;33961;-68
2022/08/04 12:47:33;;;;;;;;;;;;;;;38.95;15.77;100327.88;5405980;32;35840;-65
2022/08/04 12:50:35;;;;;;;;;;;;;;;37.92;17.00;100334.28;5380040;32;46988;-68
2022/08/04 12:53:41;;;;;;;;;;;;;;;38.65;15.87;100322.66;5384645;32;35915;-72
2022/08/04 12:56:52;;;;;;;;;;;;;;;38.01;16.46;100326.53;5413077;32;34289;-71
2022/08/04 12:59:56;;;;;;;;;;;;;;;37.28;17.33;100317.69;5390092;32;36019;-70
2022/08/04 13:03:00;;;;;;;;;;;;;;;36.97;17.70;100327.06;5409076;32;36101;-80
2022/08/04 13:06:02;;;;;;;;;;;;;;;37.61;16.28;100322.63;5391670;32;35384;-67
2022/08/04 13:09:06;;;;;;;;;;;;;;;37.59;16.08;100322.00;5396228;32;36561;-76
2022/08/04 13:12:13;;;;;;;;;;;;;;;37.69;16.48;100313.19;5403649;32;47242;-73
2022/08/04 13:15:16;;;;;;;;;;;;;;;37.36;16.98;100309.16;5388672;32;34688;-75
2022/08/04 13:18:20;;;;;;;;;;;;;;;37.29;16.87;100308.41;5403892;32;34788;-75
2022/08/04 13:21:29;;;;;;;;;;;;;;;36.06;18.19;100308.88;5400654;32;36043;-75
2022/08/04 13:24:51;;;;;;;;;;;;;;;36.13;17.87;100308.78;5393957;32;37570;-66
2022/08/04 13:28:15;;;;;;;;;;;;;;;35.73;18.29;100296.38;5405357;32;46478;-66
2022/08/04 13:31:20;;;;;;;;;;;;;;;36.48;17.72;100301.63;5378992;32;37204;-66
2022/08/04 13:34:21;;;;;;;;;;;;;;;36.90;17.27;100298.91;5400949;32;34692;-74
2022/08/04 13:37:25;;;;;;;;;;;;;;;36.66;17.80;100292.53;5396074;32;36074;-66
2022/08/04 13:40:28;;;;;;;;;;;;;;;37.63;16.97;100290.31;5402327;32;34640;-75
2022/08/04 13:43:33;;;;;;;;;;;;;;;37.80;16.61;100293.16;5393088;32;34604;-76
2022/08/04 13:46:55;;;;;;;;;;;;;;;36.80;17.65;100283.03;5394385;32;35390;-68
2022/08/04 13:50:08;;;;;;;;;;;;;;;36.54;18.01;100278.81;5397036;32;34688;-68
2022/08/04 13:53:12;;;;;;;;;;;;;;;36.44;18.12;100281.25;5365022;32;44597;-77
2022/08/04 13:56:14;;;;;;;;;;;;;;;36.14;18.54;100269.44;5407693;32;35683;-75
2022/08/04 13:59:17;;;;;;;;;;;;;;;37.22;16.94;100266.56;5386572;32;35554;-76
2022/08/04 14:02:38;;;;;;;;;;;;;;;36.45;17.67;100269.22;5386687;32;37446;-75
2022/08/04 14:05:42;;;;;;;;;;;;;;;36.49;17.55;100258.66;5406209;32;43282;-74
2022/08/04 14:09:02;;;;;;;;;;;;;;;36.44;17.49;100258.53;5391650;32;35112;-75
2022/08/04 14:12:08;;;;;;;;;;;;;;;35.45;18.64;100249.59;5403443;32;35915;-67
2022/08/04 14:15:33;;;;;;;;;;;;;;;36.21;18.01;100260.09;5404126;32;35998;-76
2022/08/04 14:18:59;;;;;;;;;;;;;;;36.18;17.72;100256.97;5391910;32;35653;-76
2022/08/04 14:22:01;;;;;;;;;;;;;;;35.92;18.28;100256.25;5400212;32;36257;-68
2022/08/04 14:25:09;;;;;;;;;;;;;;;35.30;19.06;100252.66;5395306;32;35218;-76
2022/08/04 14:28:27;;;;;;;;;;;;;;;36.17;17.99;100255.28;5398243;32;34700;-67
2022/08/04 14:31:49;;;;;;;;;;;;;;;35.92;18.31;100249.94;5395906;32;37321;-74
2022/08/04 14:34:58;;;;;;;;;;;;;;;35.92;18.32;100250.75;5391975;32;34714;-75
2022/08/04 14:38:08;;;;;;;;;;;;;;;36.03;18.08;100244.53;5398536;32;44622;-74
2022/08/04 14:41:10;;;;;;;;;;;;;;;36.08;18.10;100254.78;5390700;32;36130;-75
2022/08/04 14:44:12;;;;;;;;;;;;;;;36.11;17.98;100250.75;5405762;32;35224;-67
2022/08/04 14:47:14;;;;;;;;;;;;;;;36.28;17.76;100241.69;5387208;32;36012;-75
2022/08/04 14:50:17;;;;;;;;;;;;;;;35.64;18.27;100245.81;5391444;32;35469;-68
2022/08/04 14:53:25;;;;;;;;;;;;;;;35.76;18.44;100243.16;5394964;32;35357;-73
2022/08/04 14:56:27;;;;;;;;;;;;;;;35.77;18.48;100231.16;5397933;32;35297;-67
2022/08/04 14:59:48;;;;;;;;;;;;;;;35.67;18.45;100245.34;5407851;32;35288;-76
2022/08/04 15:03:03;;;;;;;;;;;;;;;36.89;17.20;100234.25;5387725;32;35071;-67
2022/08/04 15:06:05;;;;;;;;;;;;;;;36.71;17.46;100235.19;5394191;32;43271;-69
2022/08/04 15:09:16;;;;;;;;;;;;;;;36.30;17.94;100233.22;5413222;32;35277;-66
2022/08/04 15:12:17;;;;;;;;;;;;;;;36.34;17.90;100232.53;5400077;32;35241;-66
2022/08/04 15:15:20;;;;;;;;;;;;;;;36.31;17.79;100229.41;5419050;32;36028;-75
2022/08/04 15:18:38;;;;;;;;;;;;;;;36.74;17.36;100233.87;5386667;32;44538;-66
2022/08/04 15:21:40;;;;;;;;;;;;;;;36.39;17.45;100236.50;5400767;32;34989;-75
2022/08/04 15:24:42;;;;;;;;;;;;;;;35.79;18.22;100231.75;5407745;32;36727;-75
2022/08/04 15:27:45;;;;;;;;;;;;;;;35.78;18.25;100230.09;5388429;32;35099;-67
2022/08/04 15:30:47;;;;;;;;;;;;;;;36.04;17.94;100232.53;5416798;32;35919;-76
2022/08/04 15:33:54;;;;;;;;;;;;;;;35.65;18.36;100228.34;5392081;32;37006;-67
2022/08/04 15:37:01;;;;;;;;;;;;;;;35.38;18.73;100226.94;5410102;32;35606;-75
2022/08/04 15:40:05;;;;;;;;;;;;;;;36.00;17.92;100234.06;5381303;32;33797;-76
2022/08/04 15:43:23;;;;;;;;;;;;;;;36.07;17.84;100226.59;5386032;32;44492;-66
2022/08/04 15:46:36;;;;;;;;;;;;;;;36.17;17.72;100222.47;5416147;32;35659;-77
2022/08/04 15:49:45;;;;;;;;;;;;;;;35.79;18.09;100226.28;5393792;32;34794;-74
2022/08/04 15:53:00;;;;;;;;;;;;;;;35.68;18.25;100225.19;5399796;32;35956;-67
2022/08/04 15:56:22;;;;;;;;;;;;;;;35.87;18.12;100212.31;5405522;32;43993;-67
2022/08/04 15:59:45;;;;;;;;;;;;;;;36.37;17.44;100212.06;5392266;32;35992;-66
2022/08/04 16:02:47;;;;;;;;;;;;;;;36.08;17.69;100209.13;5405737;32;36139;-67
2022/08/04 16:05:49;;;;;;;;;;;;;;;36.13;17.69;100199.38;5394142;32;35278;-67
2022/08/04 16:08:54;;;;;;;;;;;;;;;35.67;18.15;100204.34;5414315;32;34543;-76
2022/08/04 16:11:59;;;;;;;;;;;;;;;35.40;18.49;100203.78;5398176;32;35801;-75
2022/08/04 16:15:19;;;;;;;;;;;;;;;35.83;18.04;100200.19;5396129;32;35941;-76
2022/08/04 16:18:21;;;;;;;;;;;;;;;36.19;17.67;100203.91;5408511;32;36094;-67
2022/08/04 16:21:27;;;;;;;;;;;;;;;36.26;17.52;100197.31;5391854;32;35649;-74